createdAt,value
2022-10-01T00:00:40.173Z,63.10
2022-10-01T00:03:07.914Z,63.49
2022-10-01T00:05:35.475Z,63.57
2022-10-01T00:08:03.619Z,62.94
2022-10-01T00:10:31.620Z,63.23
2022-10-01T00:12:59.414Z,63.59
2022-10-01T00:15:27.686Z,63.23
2022-10-01T00:17:55.241Z,62.95
2022-10-01T00:20:23.014Z,62.86
2022-10-01T00:22:50.635Z,63.35
2022-10-01T00:25:18.327Z,63.51
2022-10-01T00:27:46.309Z,63.71
2022-10-01T00:30:13.966Z,63.31
2022-10-01T00:32:42.129Z,62.96
2022-10-01T00:35:10.450Z,63.11
2022-10-01T00:37:38.942Z,63.16
2022-10-01T00:40:06.553Z,63.85
2022-10-01T00:42:34.089Z,63.43
2022-10-01T00:45:02.845Z,62.99
2022-10-01T00:47:30.440Z,63.58
2022-10-01T00:49:59.510Z,63.23
2022-10-01T00:52:29.080Z,63.62
2022-10-01T00:54:56.870Z,63.41
2022-10-01T00:57:25.728Z,63.06
2022-10-01T00:59:53.638Z,63.43
2022-10-01T01:02:21.255Z,63.15
2022-10-01T01:04:49.189Z,63.43
2022-10-01T01:07:16.710Z,63.42
2022-10-01T01:09:44.838Z,63.50
2022-10-01T01:12:12.352Z,63.35
2022-10-01T01:14:39.933Z,63.59
2022-10-01T01:17:08.758Z,63.77
2022-10-01T01:19:36.302Z,63.53
2022-10-01T01:22:05.727Z,63.56
2022-10-01T01:24:33.218Z,63.75
2022-10-01T01:27:00.844Z,63.58
2022-10-01T01:29:28.436Z,63.27
2022-10-01T01:31:55.980Z,63.67
2022-10-01T01:34:24.099Z,63.99
2022-10-01T01:36:54.310Z,64.29
2022-10-01T01:39:21.801Z,64.67
2022-10-01T01:41:50.213Z,65.63
2022-10-01T01:44:18.088Z,67.28
2022-10-01T01:46:46.448Z,67.52
2022-10-01T01:49:17.780Z,68.03
2022-10-01T01:51:45.302Z,68.53
2022-10-01T01:54:12.783Z,69.55
2022-10-01T01:56:40.338Z,69.59
2022-10-01T01:59:08.729Z,70.27
2022-10-01T02:01:37.870Z,70.45
2022-10-01T02:04:05.723Z,71.06
2022-10-01T02:06:33.278Z,72.11
2022-10-01T02:09:00.804Z,72.25
2022-10-01T02:11:28.977Z,73.00
2022-10-01T02:13:56.596Z,73.00
2022-10-01T02:16:24.188Z,73.32
2022-10-01T02:18:51.763Z,73.73
2022-10-01T02:21:19.353Z,74.15
2022-10-01T02:23:47.272Z,73.83
2022-10-01T02:26:14.804Z,74.47
2022-10-01T02:28:42.805Z,74.62
2022-10-01T02:31:10.408Z,75.47
2022-10-01T02:33:38.106Z,75.33
2022-10-01T02:36:06.027Z,75.61
2022-10-01T02:38:33.554Z,75.49
2022-10-01T02:41:01.344Z,75.84
2022-10-01T02:43:29.824Z,76.02
2022-10-01T02:45:58.193Z,76.03
2022-10-01T02:48:27.667Z,76.04
2022-10-01T02:50:55.636Z,76.51
2022-10-01T02:53:23.223Z,76.60
2022-10-01T02:55:50.792Z,76.27
2022-10-01T02:58:18.244Z,76.90
2022-10-01T03:00:46.340Z,77.00
2022-10-01T03:03:13.854Z,77.18
2022-10-01T03:05:41.450Z,77.17
2022-10-01T03:08:09.036Z,77.59
2022-10-01T03:10:36.595Z,77.68
2022-10-01T03:13:07.841Z,78.05
2022-10-01T03:15:35.393Z,78.15
2022-10-01T03:18:03.016Z,78.52
2022-10-01T03:20:30.643Z,78.56
2022-10-01T03:22:58.165Z,78.65
2022-10-01T03:25:26.313Z,79.16
2022-10-01T03:27:53.947Z,79.09
2022-10-01T03:30:22.257Z,79.03
2022-10-01T03:32:49.807Z,79.41
2022-10-01T03:35:17.412Z,79.33
2022-10-01T03:37:44.959Z,79.50
2022-10-01T03:40:12.493Z,79.69
2022-10-01T03:42:40.095Z,79.64
2022-10-01T03:45:07.636Z,79.82
2022-10-01T03:47:35.157Z,80.22
2022-10-01T03:50:02.901Z,80.19
2022-10-01T03:52:30.444Z,80.27
2022-10-01T03:54:57.994Z,80.02
2022-10-01T03:57:26.094Z,80.08
2022-10-01T03:59:53.632Z,80.84
2022-10-01T04:02:22.388Z,80.58
2022-10-01T04:04:50.123Z,80.18
2022-10-01T04:07:17.661Z,80.62
2022-10-01T04:09:45.187Z,80.21
2022-10-01T04:12:12.778Z,80.69
2022-10-01T04:14:40.677Z,80.48
2022-10-01T04:17:08.268Z,80.59
2022-10-01T04:19:36.192Z,80.15
2022-10-01T04:22:03.739Z,80.65
2022-10-01T04:24:31.256Z,80.87
2022-10-01T04:26:59.187Z,81.16
2022-10-01T04:29:26.705Z,81.21
2022-10-01T04:31:55.236Z,81.66
2022-10-01T04:34:43.598Z,82.10
2022-10-01T04:37:11.472Z,81.85
2022-10-01T04:39:39.382Z,82.04
2022-10-01T04:42:06.958Z,81.91
2022-10-01T04:44:34.502Z,82.38
2022-10-01T04:47:02.160Z,82.76
2022-10-01T04:49:30.642Z,82.33
2022-10-01T04:51:58.177Z,82.47
2022-10-01T04:54:25.697Z,82.58
2022-10-01T04:56:53.299Z,83.11
2022-10-01T04:59:20.837Z,83.23
2022-10-01T05:01:50.276Z,82.82
2022-10-01T05:04:18.528Z,82.92
2022-10-01T05:06:46.099Z,82.83
2022-10-01T05:09:13.702Z,82.60
2022-10-01T05:11:41.314Z,82.53
2022-10-01T05:14:09.213Z,82.53
2022-10-01T05:16:37.787Z,82.13
2022-10-01T05:19:05.440Z,82.38
2022-10-01T05:21:33.279Z,81.64
2022-10-01T05:24:01.639Z,81.74
2022-10-01T05:26:30.118Z,81.38
2022-10-01T05:28:57.989Z,81.54
2022-10-01T05:31:25.598Z,81.22
2022-10-01T05:33:53.220Z,81.26
2022-10-01T05:36:20.722Z,81.15
2022-10-01T05:38:48.497Z,81.05
2022-10-01T05:41:16.297Z,80.43
2022-10-01T05:43:44.967Z,80.50
2022-10-01T05:46:13.019Z,80.43
2022-10-01T05:48:40.644Z,79.92
2022-10-01T05:51:08.754Z,80.37
2022-10-01T05:53:37.472Z,80.14
2022-10-01T05:56:05.066Z,79.77
2022-10-01T05:58:32.637Z,80.53
2022-10-01T06:01:00.230Z,80.05
2022-10-01T06:03:29.374Z,80.83
2022-10-01T06:05:57.037Z,80.56
2022-10-01T06:08:25.044Z,80.83
2022-10-01T06:10:52.667Z,80.75
2022-10-01T06:13:20.238Z,81.57
2022-10-01T06:15:48.212Z,81.20
2022-10-01T06:18:15.863Z,81.44
2022-10-01T06:20:43.462Z,81.93
2022-10-01T06:23:12.526Z,82.10
2022-10-01T06:25:40.258Z,82.14
2022-10-01T06:28:08.298Z,82.28
2022-10-01T06:30:37.017Z,81.56
2022-10-01T06:33:04.672Z,81.62
2022-10-01T06:35:32.281Z,81.66
2022-10-01T06:38:01.760Z,81.76
2022-10-01T06:40:30.523Z,82.26
2022-10-01T06:42:59.111Z,81.48
2022-10-01T06:45:26.831Z,82.00
2022-10-01T06:47:54.465Z,82.18
2022-10-01T06:50:23.446Z,81.83
2022-10-01T06:52:52.972Z,81.98
2022-10-01T06:55:20.657Z,81.91
2022-10-01T06:57:48.237Z,82.20
2022-10-01T07:00:15.986Z,82.35
2022-10-01T07:02:43.723Z,82.29
2022-10-01T07:05:12.945Z,81.90
2022-10-01T07:07:40.583Z,82.03
2022-10-01T07:10:08.349Z,82.38
2022-10-01T07:12:35.937Z,82.33
2022-10-01T07:15:03.902Z,82.72
2022-10-01T07:17:32.184Z,82.41
2022-10-01T07:19:59.892Z,82.14
2022-10-01T07:22:27.587Z,82.81
2022-10-01T07:24:55.346Z,82.94
2022-10-01T07:27:22.976Z,82.70
2022-10-01T07:29:51.474Z,83.00
2022-10-01T07:32:19.111Z,82.37
2022-10-01T07:34:46.719Z,82.73
2022-10-01T07:37:14.925Z,82.48
2022-10-01T07:39:43.047Z,82.74
2022-10-01T07:42:11.471Z,81.97
2022-10-01T07:44:39.286Z,81.68
2022-10-01T07:47:06.986Z,81.84
2022-10-01T07:49:34.835Z,82.08
2022-10-01T07:52:02.497Z,81.61
2022-10-01T07:54:30.825Z,81.47
2022-10-01T07:56:59.393Z,81.91
2022-10-01T07:59:27.590Z,81.47
2022-10-01T08:01:55.692Z,81.80
2022-10-01T08:04:41.015Z,81.42
2022-10-01T08:07:08.884Z,81.44
2022-10-01T08:09:36.570Z,81.71
2022-10-01T08:12:04.313Z,81.61
2022-10-01T08:14:32.139Z,80.97
2022-10-01T08:17:00.240Z,81.26
2022-10-01T08:19:29.476Z,81.17
2022-10-01T08:21:57.209Z,80.86
2022-10-01T08:24:25.161Z,81.00
2022-10-01T08:26:53.238Z,80.83
2022-10-01T08:29:21.585Z,80.97
2022-10-01T08:31:49.554Z,80.94
2022-10-01T08:34:17.367Z,81.25
2022-10-01T08:36:45.891Z,81.12
2022-10-01T08:39:13.894Z,81.20
2022-10-01T08:41:42.904Z,81.02
2022-10-01T08:44:10.899Z,80.70
2022-10-01T08:46:38.683Z,80.83
2022-10-01T08:49:06.410Z,80.07
2022-10-01T08:51:34.492Z,80.15
2022-10-01T08:54:02.691Z,79.65
2022-10-01T08:56:30.378Z,79.53
2022-10-01T08:58:58.235Z,79.40
2022-10-01T09:01:26.212Z,78.92
2022-10-01T09:03:54.055Z,78.63
2022-10-01T09:06:22.353Z,78.75
2022-10-01T09:08:50.561Z,78.94
2022-10-01T09:11:18.330Z,78.92
2022-10-01T09:13:50.051Z,78.30
2022-10-01T09:16:18.388Z,78.29
2022-10-01T09:18:46.823Z,78.12
2022-10-01T09:21:14.925Z,78.40
2022-10-01T09:23:43.315Z,77.75
2022-10-01T09:26:11.123Z,78.15
2022-10-01T09:28:38.942Z,77.83
2022-10-01T09:31:07.210Z,77.98
2022-10-01T09:33:35.451Z,77.44
2022-10-01T09:36:03.450Z,77.37
2022-10-01T09:38:31.321Z,78.01
2022-10-01T09:40:59.108Z,77.96
2022-10-01T09:43:27.477Z,77.60
2022-10-01T09:45:56.638Z,77.13
2022-10-01T09:48:24.524Z,76.92
2022-10-01T09:50:54.914Z,76.37
2022-10-01T09:53:22.733Z,76.35
2022-10-01T09:55:51.041Z,76.50
2022-10-01T09:58:19.416Z,76.67
2022-10-01T10:00:48.526Z,76.29
2022-10-01T10:03:16.434Z,76.99
2022-10-01T10:05:44.256Z,77.30
2022-10-01T10:08:13.118Z,76.68
2022-10-01T10:10:40.896Z,76.60
2022-10-01T10:13:09.774Z,76.91
2022-10-01T10:15:37.714Z,77.05
2022-10-01T10:18:06.536Z,77.14
2022-10-01T10:20:40.486Z,77.13
2022-10-01T10:23:08.569Z,77.04
2022-10-01T10:25:36.351Z,77.30
2022-10-01T10:28:05.436Z,77.57
2022-10-01T10:30:33.453Z,77.19
2022-10-01T10:33:01.892Z,78.83
2022-10-01T10:35:29.871Z,78.53
2022-10-01T10:37:57.586Z,79.36
2022-10-01T10:40:29.328Z,79.52
2022-10-01T10:42:57.883Z,79.52
2022-10-01T10:45:30.299Z,80.02
2022-10-01T10:47:58.371Z,80.41
2022-10-01T10:50:26.900Z,80.11
2022-10-01T10:52:54.743Z,80.52
2022-10-01T10:55:22.588Z,80.38
2022-10-01T10:57:54.379Z,80.25
2022-10-01T11:00:25.559Z,80.07
2022-10-01T11:02:53.463Z,80.10
2022-10-01T11:05:21.338Z,79.50
2022-10-01T11:07:49.126Z,79.89
2022-10-01T11:10:17.038Z,79.06
2022-10-01T11:12:46.987Z,78.23
2022-10-01T11:15:14.814Z,77.65
2022-10-01T11:17:42.755Z,76.63
2022-10-01T11:20:10.973Z,75.75
2022-10-01T11:22:39.259Z,74.15
2022-10-01T11:25:07.268Z,72.78
2022-10-01T11:27:36.376Z,70.59
2022-10-01T11:30:04.393Z,70.11
2022-10-01T11:32:34.320Z,70.18
2022-10-01T11:35:02.490Z,70.06
2022-10-01T11:37:30.499Z,70.66
2022-10-01T11:39:58.421Z,71.29
2022-10-01T11:42:27.936Z,71.23
2022-10-01T11:45:00.675Z,70.92
2022-10-01T11:47:29.290Z,70.63
2022-10-01T11:49:57.301Z,70.61
2022-10-01T11:52:25.069Z,71.76
2022-10-01T11:54:56.107Z,72.53
2022-10-01T11:57:42.099Z,73.62
2022-10-01T12:00:11.074Z,73.24
2022-10-01T12:02:38.869Z,73.17
2022-10-01T12:05:06.672Z,72.83
2022-10-01T12:07:34.994Z,73.26
2022-10-01T12:10:03.410Z,72.06
2022-10-01T12:12:31.302Z,70.90
2022-10-01T12:15:01.715Z,70.07
2022-10-01T12:17:33.448Z,68.98
2022-10-01T12:20:01.826Z,69.22
2022-10-01T12:22:31.669Z,70.08
2022-10-01T12:24:59.658Z,69.90
2022-10-01T12:27:27.723Z,70.33
2022-10-01T12:29:55.632Z,71.03
2022-10-01T12:32:23.908Z,72.44
2022-10-01T12:34:54.425Z,73.14
2022-10-01T12:37:22.431Z,74.46
2022-10-01T12:39:50.182Z,75.95
2022-10-01T12:42:18.205Z,77.64
2022-10-01T12:44:46.104Z,78.78
2022-10-01T12:47:14.428Z,78.87
2022-10-01T12:49:42.860Z,79.67
2022-10-01T12:52:10.673Z,79.89
2022-10-01T12:54:39.082Z,80.02
2022-10-01T12:57:07.343Z,79.51
2022-10-01T12:59:35.516Z,79.58
2022-10-01T13:02:03.837Z,79.63
2022-10-01T13:04:31.913Z,79.46
2022-10-01T13:06:59.717Z,78.61
2022-10-01T13:09:27.466Z,78.40
2022-10-01T13:11:55.707Z,77.26
2022-10-01T13:14:23.688Z,76.64
2022-10-01T13:16:54.551Z,75.26
2022-10-01T13:19:25.287Z,75.46
2022-10-01T13:21:53.593Z,74.98
2022-10-01T13:24:21.753Z,74.57
2022-10-01T13:26:49.977Z,73.79
2022-10-01T13:29:17.749Z,73.95
2022-10-01T13:31:45.559Z,72.80
2022-10-01T13:34:14.152Z,72.58
2022-10-01T13:36:42.467Z,72.49
2022-10-01T13:39:10.703Z,72.73
2022-10-01T13:41:39.002Z,72.30
2022-10-01T13:44:08.020Z,72.51
2022-10-01T13:46:35.993Z,72.12
2022-10-01T13:49:04.441Z,73.03
2022-10-01T13:51:33.762Z,72.90
2022-10-01T13:54:01.611Z,71.93
2022-10-01T13:56:30.107Z,71.06
2022-10-01T13:58:57.977Z,69.51
2022-10-01T14:01:26.338Z,70.25
2022-10-01T14:03:54.497Z,70.09
2022-10-01T14:06:22.468Z,71.08
2022-10-01T14:08:50.326Z,71.41
2022-10-01T14:11:50.332Z,72.12
2022-10-01T14:14:35.355Z,72.47
2022-10-01T14:17:03.487Z,72.81
2022-10-01T14:19:31.400Z,73.67
2022-10-01T14:21:59.938Z,74.42
2022-10-01T14:24:27.785Z,74.58
2022-10-01T14:26:55.700Z,75.51
2022-10-01T14:29:23.773Z,76.04
2022-10-01T14:31:51.736Z,75.93
2022-10-01T14:34:19.926Z,76.44
2022-10-01T14:36:47.795Z,76.19
2022-10-01T14:39:15.654Z,75.78
2022-10-01T14:41:43.819Z,75.94
2022-10-01T14:44:12.040Z,75.87
2022-10-01T14:46:40.539Z,76.14
2022-10-01T14:49:08.399Z,75.67
2022-10-01T14:51:36.308Z,75.36
2022-10-01T14:54:04.551Z,73.71
2022-10-01T14:56:32.629Z,72.71
2022-10-01T14:59:02.475Z,71.62
2022-10-01T15:01:30.521Z,70.53
2022-10-01T15:03:58.791Z,69.52
2022-10-01T15:06:27.942Z,68.48
2022-10-01T15:08:56.524Z,67.86
2022-10-01T15:11:24.605Z,66.85
2022-10-01T15:13:52.411Z,67.70
2022-10-01T15:16:20.402Z,69.06
2022-10-01T15:18:48.537Z,69.79
2022-10-01T15:21:16.374Z,69.24
2022-10-01T15:23:44.709Z,68.78
2022-10-01T15:26:12.599Z,69.79
2022-10-01T15:28:40.907Z,71.06
2022-10-01T15:31:09.581Z,72.49
2022-10-01T15:33:37.497Z,72.72
2022-10-01T15:36:05.900Z,71.65
2022-10-01T15:38:33.839Z,69.20
2022-10-01T15:41:19.767Z,67.54
2022-10-01T15:43:49.786Z,67.19
2022-10-01T15:46:17.965Z,68.70
2022-10-01T15:48:46.403Z,69.95
2022-10-01T15:51:14.259Z,71.15
2022-10-01T15:53:42.072Z,72.17
2022-10-01T15:56:10.837Z,72.50
2022-10-01T15:58:40.000Z,73.31
2022-10-01T16:01:09.473Z,73.57
2022-10-01T16:03:39.039Z,73.92
2022-10-01T16:06:06.952Z,74.47
2022-10-01T16:08:35.789Z,74.67
2022-10-01T16:11:04.616Z,74.32
2022-10-01T16:13:32.489Z,74.51
2022-10-01T16:16:00.482Z,74.58
2022-10-01T16:18:30.730Z,74.48
2022-10-01T16:20:58.906Z,75.25
2022-10-01T16:23:26.998Z,74.78
2022-10-01T16:25:54.818Z,75.15
2022-10-01T16:28:22.878Z,75.01
2022-10-01T16:30:50.783Z,75.09
2022-10-01T16:33:18.975Z,74.92
2022-10-01T16:35:47.459Z,75.35
2022-10-01T16:38:15.408Z,74.99
2022-10-01T16:40:43.576Z,75.32
2022-10-01T16:43:11.628Z,75.27
2022-10-01T16:45:39.533Z,75.67
2022-10-01T16:48:07.661Z,75.16
2022-10-01T16:50:35.487Z,75.38
2022-10-01T16:53:04.514Z,75.84
2022-10-01T16:55:36.730Z,76.22
2022-10-01T16:58:04.883Z,76.03
2022-10-01T17:00:33.076Z,75.77
2022-10-01T17:03:01.218Z,76.10
2022-10-01T17:05:29.044Z,75.63
2022-10-01T17:07:57.905Z,75.44
2022-10-01T17:10:26.183Z,75.78
2022-10-01T17:12:54.174Z,76.20
2022-10-01T17:15:23.392Z,75.95
2022-10-01T17:17:51.384Z,76.08
2022-10-01T17:20:19.292Z,75.91
2022-10-01T17:22:47.565Z,76.12
2022-10-01T17:25:15.492Z,76.21
2022-10-01T17:27:43.317Z,75.98
2022-10-01T17:30:11.123Z,76.00
2022-10-01T17:32:40.023Z,75.76
2022-10-01T17:35:08.341Z,75.76
2022-10-01T17:37:37.120Z,75.95
2022-10-01T17:40:05.082Z,76.19
2022-10-01T17:42:34.610Z,75.72
2022-10-01T17:45:02.455Z,75.93
2022-10-01T17:47:30.488Z,76.32
2022-10-01T17:49:58.752Z,75.99
2022-10-01T17:52:26.865Z,75.98
2022-10-01T17:54:54.823Z,75.95
2022-10-01T17:57:22.747Z,76.39
2022-10-01T17:59:52.250Z,75.97
2022-10-01T18:02:40.321Z,76.56
2022-10-01T18:05:09.719Z,76.11
2022-10-01T18:07:38.087Z,76.49
2022-10-01T18:10:06.484Z,76.20
2022-10-01T18:12:34.649Z,76.22
2022-10-01T18:15:02.591Z,76.20
2022-10-01T18:17:30.401Z,76.12
2022-10-01T18:19:58.559Z,75.84
2022-10-01T18:22:27.635Z,76.52
2022-10-01T18:24:55.834Z,75.73
2022-10-01T18:27:23.775Z,75.88
2022-10-01T18:29:51.616Z,75.77
2022-10-01T18:32:19.453Z,76.08
2022-10-01T18:34:47.730Z,76.28
2022-10-01T18:37:15.708Z,75.87
2022-10-01T18:39:43.456Z,75.82
2022-10-01T18:42:11.584Z,75.83
2022-10-01T18:44:39.581Z,76.01
2022-10-01T18:47:07.785Z,75.91
2022-10-01T18:49:35.982Z,75.64
2022-10-01T18:52:03.841Z,76.32
2022-10-01T18:54:33.930Z,76.09
2022-10-01T18:57:01.716Z,76.44
2022-10-01T18:59:29.633Z,75.40
2022-10-01T19:01:58.053Z,76.08
2022-10-01T19:04:25.785Z,76.02
2022-10-01T19:06:53.784Z,75.61
2022-10-01T19:09:21.606Z,76.11
2022-10-01T19:11:49.791Z,76.08
2022-10-01T19:14:17.968Z,75.63
2022-10-01T19:16:45.951Z,75.96
2022-10-01T19:19:13.817Z,76.16
2022-10-01T19:21:41.776Z,76.05
2022-10-01T19:24:10.017Z,76.45
2022-10-01T19:26:38.296Z,76.56
2022-10-01T19:29:06.482Z,76.52
2022-10-01T19:31:34.245Z,76.44
2022-10-01T19:34:02.228Z,76.53
2022-10-01T19:36:34.207Z,76.10
2022-10-01T19:39:02.730Z,76.00
2022-10-01T19:41:30.613Z,76.22
2022-10-01T19:43:58.471Z,76.42
2022-10-01T19:46:26.812Z,76.07
2022-10-01T19:48:57.338Z,76.13
2022-10-01T19:51:25.617Z,76.38
2022-10-01T19:53:56.680Z,75.98
2022-10-01T19:56:24.661Z,76.42
2022-10-01T19:58:52.555Z,76.50
2022-10-01T20:01:20.694Z,76.24
2022-10-01T20:03:49.126Z,76.69
2022-10-01T20:06:16.940Z,75.88
2022-10-01T20:08:44.806Z,76.41
2022-10-01T20:11:14.293Z,76.13
2022-10-01T20:13:42.157Z,76.77
2022-10-01T20:16:10.379Z,76.54
2022-10-01T20:18:38.383Z,77.00
2022-10-01T20:21:06.250Z,76.87
2022-10-01T20:23:34.066Z,77.27
2022-10-01T20:26:02.238Z,77.10
2022-10-01T20:28:30.487Z,77.07
2022-10-01T20:30:59.014Z,76.80
2022-10-01T20:33:27.040Z,77.20
2022-10-01T20:35:55.058Z,77.06
2022-10-01T20:38:23.325Z,76.66
2022-10-01T20:40:51.468Z,77.85
2022-10-01T20:43:19.388Z,77.58
2022-10-01T20:45:47.191Z,77.78
2022-10-01T20:48:15.260Z,77.53
2022-10-01T20:50:44.861Z,77.57
2022-10-01T20:53:13.618Z,77.24
2022-10-01T20:55:41.495Z,77.63
2022-10-01T20:58:09.303Z,77.58
2022-10-01T21:00:37.781Z,77.17
2022-10-01T21:03:05.750Z,77.81
2022-10-01T21:05:33.917Z,77.53
2022-10-01T21:08:02.379Z,77.66
2022-10-01T21:10:30.270Z,77.34
2022-10-01T21:12:58.173Z,77.32
2022-10-01T21:15:27.772Z,76.87
2022-10-01T21:17:57.355Z,77.02
2022-10-01T21:20:25.197Z,76.86
2022-10-01T21:22:52.973Z,76.84
2022-10-01T21:25:20.919Z,76.82
2022-10-01T21:27:48.931Z,76.50
2022-10-01T21:30:17.130Z,77.08
2022-10-01T21:32:44.974Z,76.64
2022-10-01T21:35:12.774Z,77.26
2022-10-01T21:37:40.853Z,77.00
2022-10-01T21:40:08.966Z,76.93
2022-10-01T21:42:36.986Z,77.23
2022-10-01T21:45:04.824Z,77.04
2022-10-01T21:47:32.583Z,76.55
2022-10-01T21:50:00.290Z,77.33
2022-10-01T21:52:28.259Z,77.42
2022-10-01T21:54:56.532Z,77.34
2022-10-01T21:57:24.277Z,77.37
2022-10-01T21:59:52.393Z,77.39
2022-10-01T22:02:20.806Z,76.98
2022-10-01T22:04:48.758Z,77.43
2022-10-01T22:07:17.423Z,77.10
2022-10-01T22:09:45.165Z,77.13
2022-10-01T22:12:12.910Z,77.38
2022-10-01T22:14:40.657Z,77.65
2022-10-01T22:17:08.760Z,77.34
2022-10-01T22:19:37.444Z,76.83
2022-10-01T22:22:05.513Z,76.68
2022-10-01T22:24:33.289Z,77.44
2022-10-01T22:27:00.990Z,76.57
2022-10-01T22:29:28.710Z,76.98
2022-10-01T22:31:57.000Z,77.16
2022-10-01T22:34:24.671Z,77.00
2022-10-01T22:36:52.319Z,76.86
2022-10-01T22:39:20.150Z,76.84
2022-10-01T22:41:48.116Z,77.17
2022-10-01T22:44:16.723Z,77.32
2022-10-01T22:46:44.503Z,76.88
2022-10-01T22:49:12.337Z,76.95
2022-10-01T22:51:40.174Z,77.28
2022-10-01T22:54:07.970Z,77.50
2022-10-01T22:56:36.799Z,77.60
2022-10-01T22:59:04.617Z,77.34
2022-10-01T23:01:32.444Z,77.26
2022-10-01T23:04:00.233Z,77.45
2022-10-01T23:06:27.867Z,77.29
2022-10-01T23:08:55.605Z,77.20
2022-10-01T23:11:23.280Z,77.56
2022-10-01T23:13:50.982Z,77.48
2022-10-01T23:16:18.786Z,78.14
2022-10-01T23:18:47.399Z,77.93
2022-10-01T23:21:15.418Z,77.37
2022-10-01T23:23:43.200Z,77.95
2022-10-01T23:26:11.137Z,78.15
2022-10-01T23:28:39.477Z,77.47
2022-10-01T23:31:07.353Z,77.83
2022-10-01T23:33:35.004Z,77.33
2022-10-01T23:36:02.688Z,77.41
2022-10-01T23:38:30.836Z,77.97
2022-10-01T23:40:58.472Z,77.59
2022-10-01T23:43:26.390Z,77.73
2022-10-01T23:45:54.451Z,77.68
2022-10-01T23:48:22.064Z,78.11
2022-10-01T23:50:50.045Z,77.21
2022-10-01T23:53:17.647Z,77.84
2022-10-01T23:56:03.082Z,77.47
2022-10-01T23:58:30.990Z,78.06
